createdAt,value
2018-06-05T00:01:52.406Z,99878.02
2018-06-05T00:04:23.637Z,99875.58
2018-06-05T00:06:54.396Z,99878.09
2018-06-05T00:09:24.852Z,99872.56
2018-06-05T00:11:55.775Z,99879.53
2018-06-05T00:14:25.996Z,99876.39
2018-06-05T00:16:57.543Z,99875.52
2018-06-05T00:19:28.514Z,99881.08
2018-06-05T00:22:00.552Z,99879.66
2018-06-05T00:24:31.101Z,99884.23
2018-06-05T00:27:01.816Z,99877.50
2018-06-05T00:29:32.253Z,99878.81
2018-06-05T00:32:02.733Z,99882.52
2018-06-05T00:34:33.388Z,99876.20
2018-06-05T00:37:03.958Z,99889.11
2018-06-05T00:39:34.601Z,99888.16
2018-06-05T00:42:06.315Z,99886.52
2018-06-05T00:44:36.945Z,99883.66
2018-06-05T00:47:07.543Z,99899.70
2018-06-05T00:49:38.855Z,99892.96
2018-06-05T00:52:10.888Z,99897.66
2018-06-05T00:54:41.342Z,99891.34
2018-06-05T00:57:12.308Z,99894.39
2018-06-05T00:59:42.898Z,99899.38
2018-06-05T01:02:13.353Z,99891.33
2018-06-05T01:04:44.385Z,99895.17
2018-06-05T01:07:15.369Z,99895.63
2018-06-05T01:09:46.077Z,99898.27
2018-06-05T01:12:16.693Z,99895.20
2018-06-05T01:14:47.327Z,99902.45
2018-06-05T01:17:19.049Z,99907.44
2018-06-05T01:19:50.718Z,99906.57
2018-06-05T01:22:21.318Z,99907.69
2018-06-05T01:24:52.106Z,99911.67
2018-06-05T01:27:23.680Z,99904.53
2018-06-05T01:29:54.127Z,99903.92
2018-06-05T01:32:25.933Z,99907.52
2018-06-05T01:34:56.654Z,99909.05
2018-06-05T01:37:27.243Z,99910.42
2018-06-05T01:39:57.745Z,99915.55
2018-06-05T01:42:28.664Z,99915.97
2018-06-05T01:44:59.758Z,99921.61
2018-06-05T01:47:30.332Z,99925.36
2018-06-05T01:50:01.258Z,99930.63
2018-06-05T01:52:32.972Z,99935.56
2018-06-05T01:55:03.876Z,99924.52
2018-06-05T01:57:35.522Z,99932.58
2018-06-05T02:00:06.069Z,99924.19
2018-06-05T02:02:36.541Z,99921.64
2018-06-05T02:05:07.844Z,99922.02
2018-06-05T02:07:38.469Z,99919.16
2018-06-05T02:10:08.964Z,99921.59
2018-06-05T02:12:39.585Z,99924.34
2018-06-05T02:15:10.584Z,99923.55
2018-06-05T02:17:41.068Z,99922.28
2018-06-05T02:20:11.652Z,99922.22
2018-06-05T02:22:42.104Z,99920.28
2018-06-05T02:25:12.603Z,99925.63
2018-06-05T02:27:43.358Z,99918.95
2018-06-05T02:30:13.840Z,99921.89
2018-06-05T02:32:44.298Z,99930.25
2018-06-05T02:35:15.081Z,99926.91
2018-06-05T02:37:46.769Z,99926.23
2018-06-05T02:40:17.304Z,99930.98
2018-06-05T02:42:47.805Z,99929.74
2018-06-05T02:45:18.820Z,99930.62
2018-06-05T02:47:50.180Z,99936.53
2018-06-05T02:50:20.743Z,99938.98
2018-06-05T02:52:51.220Z,99935.56
2018-06-05T02:55:21.852Z,99933.80
2018-06-05T02:57:52.769Z,99940.39
2018-06-05T03:00:23.234Z,99941.98
2018-06-05T03:02:53.741Z,99939.73
2018-06-05T03:05:24.387Z,99943.53
2018-06-05T03:07:54.892Z,99938.23
2018-06-05T03:10:25.372Z,99947.75
2018-06-05T03:12:56.487Z,99951.38
2018-06-05T03:15:27.151Z,99957.05
2018-06-05T03:17:58.832Z,99952.58
2018-06-05T03:20:29.814Z,99946.91
2018-06-05T03:23:01.277Z,99949.99
2018-06-05T03:25:31.748Z,99950.91
2018-06-05T03:28:02.247Z,99953.96
2018-06-05T03:30:33.060Z,99960.83
2018-06-05T03:33:04.034Z,99955.12
2018-06-05T03:35:34.692Z,99956.23
2018-06-05T03:38:05.604Z,99964.44
2018-06-05T03:40:36.215Z,99966.04
2018-06-05T03:43:07.091Z,99966.09
2018-06-05T03:45:38.119Z,99968.39
2018-06-05T03:48:08.615Z,99970.91
2018-06-05T03:50:39.733Z,99966.59
2018-06-05T03:53:10.492Z,99966.49
2018-06-05T03:55:40.976Z,99958.44
2018-06-05T03:58:11.401Z,99955.89
2018-06-05T04:00:42.137Z,99959.95
2018-06-05T04:03:12.878Z,99963.41
2018-06-05T04:05:43.797Z,99972.75
2018-06-05T04:08:14.309Z,99969.77
2018-06-05T04:10:45.067Z,99969.52
2018-06-05T04:13:15.582Z,99964.83
2018-06-05T04:15:46.160Z,99963.80
2018-06-05T04:18:16.598Z,99965.45
2018-06-05T04:20:47.060Z,99967.42
2018-06-05T04:23:17.300Z,99980.16
2018-06-05T04:25:47.715Z,99980.80
2018-06-05T04:28:19.708Z,99987.63
2018-06-05T04:30:50.917Z,99982.00
2018-06-05T04:33:21.519Z,99986.75
2018-06-05T04:35:51.645Z,99980.67
2018-06-05T04:38:22.047Z,99990.08
2018-06-05T04:40:52.841Z,99983.08
2018-06-05T04:43:23.874Z,99986.78
2018-06-05T04:45:54.722Z,99993.39
2018-06-05T04:48:25.379Z,99995.61
2018-06-05T04:50:56.576Z,99998.61
2018-06-05T04:53:27.349Z,100001.70
2018-06-05T04:55:57.937Z,100001.08
2018-06-05T04:58:28.580Z,99998.02
2018-06-05T05:00:59.086Z,100001.54
2018-06-05T05:03:29.769Z,100002.91
2018-06-05T05:06:00.647Z,100001.57
2018-06-05T05:08:31.288Z,99998.20
2018-06-05T05:11:02.159Z,100002.53
2018-06-05T05:13:32.716Z,100000.20
2018-06-05T05:16:03.730Z,100002.17
2018-06-05T05:18:34.114Z,100007.77
2018-06-05T05:21:04.837Z,100011.31
2018-06-05T05:23:35.377Z,100009.45
2018-06-05T05:26:05.986Z,100008.55
2018-06-05T05:28:36.750Z,100009.78
2018-06-05T05:31:07.274Z,100012.55
2018-06-05T05:33:39.013Z,100010.53
2018-06-05T05:36:09.594Z,100018.62
2018-06-05T05:38:40.518Z,100015.61
2018-06-05T05:41:11.358Z,100022.97
2018-06-05T05:43:41.803Z,100017.12
2018-06-05T05:46:12.463Z,100017.63
2018-06-05T05:48:43.292Z,100011.95
2018-06-05T05:51:13.889Z,100022.88
2018-06-05T05:53:45.947Z,100027.23
2018-06-05T05:56:16.609Z,100028.54
2018-06-05T05:58:47.125Z,100027.53
2018-06-05T06:01:17.982Z,100029.23
2018-06-05T06:03:48.694Z,100027.30
2018-06-05T06:06:19.165Z,100032.56
2018-06-05T06:08:50.643Z,100027.44
2018-06-05T06:11:21.045Z,100028.42
2018-06-05T06:13:51.665Z,100029.64
2018-06-05T06:16:22.319Z,100034.38
2018-06-05T06:18:53.244Z,100025.59
2018-06-05T06:21:24.083Z,100029.73
2018-06-05T06:23:54.970Z,100028.72
2018-06-05T06:26:25.737Z,100026.56
2018-06-05T06:28:56.496Z,100026.89
2018-06-05T06:31:26.931Z,100024.50
2018-06-05T06:33:57.211Z,100020.72
2018-06-05T06:36:27.751Z,100017.55
2018-06-05T06:38:58.652Z,100021.30
2018-06-05T06:41:29.199Z,100021.89
2018-06-05T06:43:59.850Z,100020.01
2018-06-05T06:46:30.468Z,100019.52
2018-06-05T06:49:00.978Z,100019.38
2018-06-05T06:51:31.476Z,100023.33
2018-06-05T06:54:02.221Z,100020.46
2018-06-05T06:56:32.860Z,100015.09
2018-06-05T06:59:04.543Z,100015.71
2018-06-05T07:01:35.286Z,100019.52
2018-06-05T07:04:06.362Z,100021.88
2018-06-05T07:06:36.846Z,100013.55
2018-06-05T07:09:09.248Z,100010.52
2018-06-05T07:11:39.864Z,100009.89
2018-06-05T07:14:10.789Z,100020.39
2018-06-05T07:16:41.279Z,100012.86
2018-06-05T07:19:11.551Z,100012.42
2018-06-05T07:21:42.130Z,100010.65
2018-06-05T07:24:12.801Z,100012.31
2018-06-05T07:26:43.849Z,100019.94
2018-06-05T07:29:14.535Z,100009.81
2018-06-05T07:31:45.117Z,100013.25
2018-06-05T07:34:15.609Z,100010.70
2018-06-05T07:36:46.148Z,100016.20
2018-06-05T07:39:16.975Z,100010.53
2018-06-05T07:41:47.612Z,100012.43
2018-06-05T07:44:18.240Z,100008.33
2018-06-05T07:46:48.639Z,100005.72
2018-06-05T07:49:19.539Z,100002.59
2018-06-05T07:51:51.255Z,100003.16
2018-06-05T07:54:22.005Z,100003.37
2018-06-05T07:56:52.536Z,100008.07
2018-06-05T07:59:24.526Z,100007.84
2018-06-05T08:01:55.125Z,100008.02
2018-06-05T08:04:27.009Z,100012.64
2018-06-05T08:06:58.312Z,100006.08
2018-06-05T08:09:29.375Z,100009.16
2018-06-05T08:11:59.955Z,100008.03
2018-06-05T08:14:30.839Z,100013.85
2018-06-05T08:17:01.200Z,100007.46
2018-06-05T08:19:32.168Z,100008.36
2018-06-05T08:22:02.831Z,100005.38
2018-06-05T08:24:34.390Z,100008.75
2018-06-05T08:27:04.600Z,100003.19
2018-06-05T08:29:34.645Z,100010.19
2018-06-05T08:32:05.284Z,100009.73
2018-06-05T08:34:35.893Z,100011.62
2018-06-05T08:37:07.081Z,100009.43
2018-06-05T08:39:37.660Z,100004.74
2018-06-05T08:42:08.819Z,100008.36
2018-06-05T08:44:39.077Z,100005.26
2018-06-05T08:47:10.272Z,100004.23
2018-06-05T08:49:40.498Z,100009.81
2018-06-05T08:52:11.162Z,100014.08
2018-06-05T08:57:12.069Z,100002.15
2018-06-05T08:59:42.639Z,100003.22
2018-06-05T09:02:13.378Z,100000.47
2018-06-05T09:04:43.850Z,99994.53
2018-06-05T09:07:14.483Z,100001.27
2018-06-05T09:09:44.950Z,99994.63
2018-06-05T09:12:15.440Z,99997.68
2018-06-05T09:14:46.013Z,100002.13
2018-06-05T09:17:17.640Z,100001.58
2018-06-05T09:19:48.200Z,99994.83
2018-06-05T09:22:19.959Z,99996.62
2018-06-05T09:24:51.529Z,99993.50
2018-06-05T09:27:22.088Z,99992.06
2018-06-05T09:29:52.756Z,99987.75
2018-06-05T09:32:23.556Z,99994.61
2018-06-05T09:34:54.329Z,99992.72
2018-06-05T09:37:25.643Z,99986.14
2018-06-05T09:39:56.041Z,99980.27
2018-06-05T09:42:26.613Z,99981.89
2018-06-05T09:44:57.204Z,99983.44
2018-06-05T09:47:28.517Z,99981.92
2018-06-05T09:49:59.427Z,99975.16
2018-06-05T09:52:30.485Z,99974.62
2018-06-05T09:55:01.284Z,99975.81
2018-06-05T09:57:33.129Z,99968.50
2018-06-05T10:00:04.176Z,99967.67
2018-06-05T10:02:34.757Z,99967.19
2018-06-05T10:05:05.710Z,99968.21
2018-06-05T10:07:36.017Z,99959.51
2018-06-05T10:10:06.622Z,99962.91
2018-06-05T10:12:37.883Z,99959.80
2018-06-05T10:15:08.402Z,99951.69
2018-06-05T10:17:38.952Z,99961.98
2018-06-05T10:20:09.548Z,99957.33
2018-06-05T10:22:40.454Z,99951.70
2018-06-05T10:25:11.056Z,99957.08
2018-06-05T10:27:41.794Z,99949.84
2018-06-05T10:30:12.342Z,99951.75
2018-06-05T10:32:44.055Z,99949.19
2018-06-05T10:35:14.593Z,99953.08
2018-06-05T10:37:45.253Z,99946.06
2018-06-05T10:40:16.309Z,99943.60
2018-06-05T10:42:46.799Z,99942.61
2018-06-05T10:45:17.357Z,99940.91
2018-06-05T10:47:48.239Z,99940.20
2018-06-05T10:50:18.804Z,99941.29
2018-06-05T10:52:49.059Z,99937.20
2018-06-05T10:55:19.618Z,99939.78
2018-06-05T10:57:51.043Z,99938.52
2018-06-05T11:00:21.628Z,99935.34
2018-06-05T11:02:52.656Z,99934.52
2018-06-05T11:05:23.153Z,99936.14
2018-06-05T11:07:53.793Z,99935.44
2018-06-05T11:10:24.748Z,99936.80
2018-06-05T11:12:55.595Z,99927.50
2018-06-05T11:15:26.164Z,99928.95
2018-06-05T11:17:56.704Z,99921.55
2018-06-05T11:20:27.444Z,99920.00
2018-06-05T11:22:58.179Z,99922.13
2018-06-05T11:25:28.774Z,99916.62
2018-06-05T11:27:59.496Z,99912.64
2018-06-05T11:30:30.118Z,99908.44
2018-06-05T11:33:00.845Z,99908.48
2018-06-05T11:35:31.461Z,99905.31
2018-06-05T11:38:02.062Z,99895.75
2018-06-05T11:40:32.576Z,99898.14
2018-06-05T11:43:02.785Z,99900.33
2018-06-05T11:45:33.170Z,99901.40
2018-06-05T11:48:04.844Z,99894.16
2018-06-05T11:50:35.857Z,99890.44
2018-06-05T11:53:06.655Z,99894.18
2018-06-05T11:55:37.533Z,99892.60
2018-06-05T11:58:08.298Z,99889.98
2018-06-05T12:00:38.945Z,99891.30
2018-06-05T12:03:09.147Z,99881.17
2018-06-05T12:05:39.505Z,99877.14
2018-06-05T12:08:11.137Z,99865.66
2018-06-05T12:10:41.789Z,99871.55
2018-06-05T12:13:12.518Z,99870.23
2018-06-05T12:15:43.128Z,99865.13
2018-06-05T12:18:13.800Z,99868.65
2018-06-05T12:20:44.537Z,99863.01
2018-06-05T12:23:15.237Z,99858.73
2018-06-05T12:25:46.101Z,99857.66
2018-06-05T12:28:17.332Z,99852.84
2018-06-05T12:30:47.859Z,99847.22
2018-06-05T12:33:18.741Z,99844.52
2018-06-05T12:35:49.429Z,99846.38
2018-06-05T12:38:21.130Z,99838.38
2018-06-05T12:40:51.919Z,99839.69
2018-06-05T12:43:22.375Z,99830.59
2018-06-05T12:45:52.973Z,99827.34
2018-06-05T12:48:23.687Z,99834.28
2018-06-05T12:50:54.445Z,99832.09
2018-06-05T12:53:25.354Z,99822.11
2018-06-05T12:55:55.873Z,99825.80
2018-06-05T12:58:26.404Z,99822.58
2018-06-05T13:00:56.529Z,99819.58
2018-06-05T13:03:26.578Z,99827.52
2018-06-05T13:05:57.260Z,99816.49
2018-06-05T13:08:27.917Z,99818.84
2018-06-05T13:10:58.439Z,99815.22
2018-06-05T13:13:29.280Z,99818.78
2018-06-05T13:15:59.637Z,99814.31
2018-06-05T13:18:30.033Z,99811.69
2018-06-05T13:21:00.881Z,99810.08
2018-06-05T13:23:31.531Z,99808.11
2018-06-05T13:26:02.246Z,99804.52
2018-06-05T13:28:33.293Z,99800.70
2018-06-05T13:31:04.327Z,99801.22
2018-06-05T13:33:34.831Z,99797.63
2018-06-05T13:36:05.426Z,99807.27
2018-06-05T13:38:36.288Z,99809.95
2018-06-05T13:41:06.820Z,99799.92
2018-06-05T13:43:37.345Z,99798.07
2018-06-05T13:46:07.883Z,99800.33
2018-06-05T13:48:38.645Z,99796.13
2018-06-05T13:51:09.515Z,99794.59
2018-06-05T13:53:40.024Z,99795.97
2018-06-05T13:56:11.293Z,99797.31
2018-06-05T13:58:41.775Z,99802.37
2018-06-05T14:01:12.768Z,99793.02
2018-06-05T14:03:43.292Z,99787.09
2018-06-05T14:06:13.935Z,99784.70
2018-06-05T14:08:44.452Z,99791.68
2018-06-05T14:11:15.680Z,99787.14
2018-06-05T14:13:46.824Z,99786.63
2018-06-05T14:16:17.957Z,99786.13
2018-06-05T14:18:49.029Z,99784.51
2018-06-05T14:21:19.480Z,99792.25
2018-06-05T14:23:50.754Z,99785.05
2018-06-05T14:26:21.265Z,99786.64
2018-06-05T14:28:52.104Z,99775.91
2018-06-05T14:31:22.655Z,99780.69
2018-06-05T14:33:53.772Z,99784.36
2018-06-05T14:36:23.910Z,99775.53
2018-06-05T14:38:54.440Z,99769.95
2018-06-05T14:41:25.037Z,99769.61
2018-06-05T14:43:55.713Z,99771.39
2018-06-05T14:46:26.236Z,99772.89
2018-06-05T14:48:57.848Z,99769.09
2018-06-05T14:51:28.717Z,99769.56
2018-06-05T14:53:59.273Z,99765.82
2018-06-05T14:56:29.866Z,99765.39
2018-06-05T14:59:00.483Z,99764.13
2018-06-05T15:01:31.060Z,99764.96
2018-06-05T15:04:01.687Z,99761.62
2018-06-05T15:06:32.281Z,99759.19
2018-06-05T15:09:03.018Z,99761.27
2018-06-05T15:11:33.939Z,99752.30
2018-06-05T15:14:04.488Z,99757.52
2018-06-05T15:16:35.095Z,99749.97
2018-06-05T15:19:05.892Z,99749.12
2018-06-05T15:21:36.580Z,99751.05
2018-06-05T15:24:07.325Z,99745.80
2018-06-05T15:26:37.836Z,99735.66
2018-06-05T15:29:08.461Z,99745.91
2018-06-05T15:31:38.991Z,99741.37
2018-06-05T15:34:09.565Z,99750.56
2018-06-05T15:36:40.055Z,99760.44
2018-06-05T15:39:10.911Z,99753.61
2018-06-05T15:41:41.686Z,99747.52
2018-06-05T15:44:12.344Z,99751.39
2018-06-05T15:46:42.868Z,99748.63
2018-06-05T15:49:13.417Z,99756.80
2018-06-05T15:51:43.994Z,99752.44
2018-06-05T15:54:14.564Z,99762.09
2018-06-05T15:56:45.022Z,99759.22
2018-06-05T15:59:15.601Z,99753.14
2018-06-05T16:01:46.370Z,99751.56
2018-06-05T16:04:17.227Z,99753.92
2018-06-05T16:06:47.791Z,99749.55
2018-06-05T16:09:18.680Z,99748.00
2018-06-05T16:11:49.145Z,99752.09
2018-06-05T16:14:19.880Z,99756.13
2018-06-05T16:16:50.545Z,99748.38
2018-06-05T16:19:21.199Z,99751.30
2018-06-05T16:21:52.489Z,99754.00
2018-06-05T16:24:23.122Z,99746.03
2018-06-05T16:26:53.661Z,99746.88
2018-06-05T16:29:25.488Z,99742.57
2018-06-05T16:31:56.163Z,99746.04
2018-06-05T16:34:26.677Z,99742.83
2018-06-05T16:36:57.857Z,99735.91
2018-06-05T16:39:29.105Z,99739.36
2018-06-05T16:41:59.667Z,99733.48
2018-06-05T16:44:30.392Z,99730.52
2018-06-05T16:47:01.253Z,99735.83
2018-06-05T16:49:32.980Z,99728.19
2018-06-05T16:52:03.516Z,99724.34
2018-06-05T16:54:34.032Z,99729.84
2018-06-05T16:57:04.682Z,99726.02
2018-06-05T16:59:35.694Z,99729.46
2018-06-05T17:02:06.176Z,99714.13
2018-06-05T17:04:37.806Z,99716.50
2018-06-05T17:07:08.354Z,99712.89
2018-06-05T17:09:38.938Z,99715.06
2018-06-05T17:12:09.462Z,99713.28
2018-06-05T17:14:40.021Z,99715.83
2018-06-05T17:17:10.589Z,99705.56
2018-06-05T17:19:41.734Z,99705.25
2018-06-05T17:22:12.253Z,99711.22
2018-06-05T17:24:42.876Z,99699.19
2018-06-05T17:27:13.214Z,99705.81
2018-06-05T17:29:43.807Z,99703.03
2018-06-05T17:32:14.324Z,99705.50
2018-06-05T17:34:44.839Z,99704.98
2018-06-05T17:37:15.358Z,99710.16
2018-06-05T17:39:46.111Z,99705.22
2018-06-05T17:42:16.781Z,99710.61
2018-06-05T17:44:46.977Z,99712.95
2018-06-05T17:47:17.790Z,99709.46
2018-06-05T17:49:48.668Z,99715.75
2018-06-05T17:52:18.911Z,99719.19
2018-06-05T17:54:50.342Z,99723.12
2018-06-05T17:57:20.927Z,99717.84
2018-06-05T17:59:52.500Z,99722.96
2018-06-05T18:02:23.320Z,99725.44
2018-06-05T18:04:54.521Z,99732.64
2018-06-05T18:07:25.389Z,99734.83
2018-06-05T18:09:55.952Z,99738.59
2018-06-05T18:12:27.181Z,99740.99
2018-06-05T18:14:57.843Z,99734.02
2018-06-05T18:17:28.403Z,99738.84
2018-06-05T18:19:59.304Z,99749.77
2018-06-05T18:22:29.850Z,99754.58
2018-06-05T18:25:00.380Z,99759.38
2018-06-05T18:27:31.203Z,99765.52
2018-06-05T18:30:02.205Z,99769.50
2018-06-05T18:32:32.908Z,99770.76
2018-06-05T18:35:05.220Z,99770.78
2018-06-05T18:37:35.651Z,99771.05
2018-06-05T18:40:07.270Z,99772.63
2018-06-05T18:42:38.337Z,99766.57
2018-06-05T18:45:08.959Z,99775.38
2018-06-05T18:47:39.465Z,99782.77
2018-06-05T18:50:10.404Z,99782.13
2018-06-05T18:52:41.299Z,99793.14
2018-06-05T18:55:12.806Z,99795.41
2018-06-05T18:57:43.387Z,99807.88
2018-06-05T19:00:13.978Z,99807.09
2018-06-05T19:02:44.585Z,99808.20
2018-06-05T19:05:15.161Z,99811.27
2018-06-05T19:07:45.705Z,99819.91
2018-06-05T19:10:16.936Z,99822.55
2018-06-05T19:12:47.394Z,99824.02
2018-06-05T19:15:18.236Z,99830.55
2018-06-05T19:17:49.033Z,99834.77
2018-06-05T19:20:19.883Z,99838.98
2018-06-05T19:22:50.549Z,99848.30
2018-06-05T19:25:21.070Z,99852.81
2018-06-05T19:27:52.667Z,99865.65
2018-06-05T19:30:23.241Z,99869.20
2018-06-05T19:32:53.760Z,99870.38
2018-06-05T19:35:24.314Z,99877.44
2018-06-05T19:37:55.077Z,99885.84
2018-06-05T19:40:26.284Z,99890.45
2018-06-05T19:42:56.841Z,99894.72
2018-06-05T19:45:27.426Z,99901.37
2018-06-05T19:47:57.957Z,99904.26
2018-06-05T19:50:28.867Z,99906.42
2018-06-05T19:52:59.373Z,99908.24
2018-06-05T19:55:29.967Z,99908.15
2018-06-05T19:58:00.789Z,99916.65
2018-06-05T20:00:31.728Z,99919.20
2018-06-05T20:03:02.202Z,99920.97
2018-06-05T20:05:33.227Z,99919.58
2018-06-05T20:08:03.697Z,99922.43
2018-06-05T20:10:35.268Z,99922.58
2018-06-05T20:13:06.224Z,99920.86
2018-06-05T20:15:36.732Z,99924.63
2018-06-05T20:18:07.213Z,99926.19
2018-06-05T20:20:38.818Z,99930.11
2018-06-05T20:23:09.348Z,99934.86
2018-06-05T20:25:39.876Z,99934.33
2018-06-05T20:28:10.433Z,99932.28
2018-06-05T20:30:40.962Z,99932.44
2018-06-05T20:33:11.422Z,99941.70
2018-06-05T20:35:41.973Z,99942.73
2018-06-05T20:38:12.681Z,99943.89
2018-06-05T20:40:43.715Z,99948.44
2018-06-05T20:43:14.423Z,99948.97
2018-06-05T20:45:45.038Z,99951.31
2018-06-05T20:48:15.868Z,99953.38
2018-06-05T20:50:46.512Z,99946.02
2018-06-05T20:53:17.359Z,99947.28
2018-06-05T20:55:48.335Z,99948.25
2018-06-05T20:58:18.873Z,99949.05
2018-06-05T21:00:51.010Z,99949.98
2018-06-05T21:03:22.351Z,99948.81
2018-06-05T21:05:53.507Z,99949.59
2018-06-05T21:08:24.289Z,99947.21
2018-06-05T21:10:54.828Z,99952.80
2018-06-05T21:13:25.265Z,99947.32
2018-06-05T21:15:57.186Z,99945.83
2018-06-05T21:18:27.645Z,99945.03
2018-06-05T21:20:58.513Z,99946.41
2018-06-05T21:23:29.011Z,99941.16
2018-06-05T21:25:59.517Z,99945.69
2018-06-05T21:28:29.995Z,99940.63
2018-06-05T21:31:00.506Z,99937.63
2018-06-05T21:33:31.019Z,99937.92
2018-06-05T21:36:01.515Z,99936.53
2018-06-05T21:38:31.986Z,99944.43
2018-06-05T21:41:02.543Z,99946.63
2018-06-05T21:43:33.039Z,99949.58
2018-06-05T21:46:03.665Z,99956.14
2018-06-05T21:48:34.809Z,99949.28
2018-06-05T21:51:05.401Z,99952.81
2018-06-05T21:53:35.837Z,99949.61
2018-06-05T21:56:06.524Z,99957.05
2018-06-05T21:58:37.222Z,99953.49
2018-06-05T22:01:07.764Z,99957.95
2018-06-05T22:03:38.269Z,99961.19
2018-06-05T22:06:08.746Z,99963.06
2018-06-05T22:08:39.781Z,99960.73
2018-06-05T22:11:10.286Z,99964.14
2018-06-05T22:13:40.814Z,99962.25
2018-06-05T22:16:11.645Z,99964.16
2018-06-05T22:18:42.609Z,99968.11
2018-06-05T22:21:13.200Z,99960.73
2018-06-05T22:23:43.889Z,99962.28
2018-06-05T22:26:14.602Z,99960.23
2018-06-05T22:28:45.074Z,99962.97
2018-06-05T22:31:15.572Z,99958.92
2018-06-05T22:33:46.266Z,99962.77
2018-06-05T22:36:17.461Z,99965.31
2018-06-05T22:38:47.996Z,99963.87
2018-06-05T22:41:18.448Z,99968.69
2018-06-05T22:43:49.123Z,99970.16
2018-06-05T22:46:19.627Z,99971.80
2018-06-05T22:48:50.099Z,99972.70
2018-06-05T22:51:20.583Z,99977.06
2018-06-05T22:53:50.839Z,99975.85
2018-06-05T22:56:21.413Z,99971.45
2018-06-05T22:58:51.945Z,99979.19
2018-06-05T23:01:22.660Z,99979.95
2018-06-05T23:03:53.123Z,99978.52
2018-06-05T23:06:23.335Z,99982.93
2018-06-05T23:08:53.972Z,99986.40
2018-06-05T23:11:24.531Z,99988.48
2018-06-05T23:13:54.986Z,99982.72
2018-06-05T23:16:26.033Z,99984.63
2018-06-05T23:18:56.569Z,99990.42
2018-06-05T23:21:26.690Z,99986.12
2018-06-05T23:23:57.576Z,99987.33
2018-06-05T23:26:28.075Z,99992.39
2018-06-05T23:28:58.938Z,99986.28
2018-06-05T23:31:29.661Z,99990.64
2018-06-05T23:34:00.688Z,99985.84
2018-06-05T23:36:31.174Z,99986.78
2018-06-05T23:39:02.276Z,99981.44
2018-06-05T23:41:32.750Z,99985.08
2018-06-05T23:44:03.253Z,99985.98
2018-06-05T23:46:33.718Z,99982.97
2018-06-05T23:49:04.296Z,99981.38
2018-06-05T23:51:35.890Z,99990.28
2018-06-05T23:54:06.118Z,99987.75
2018-06-05T23:56:36.541Z,99979.77
2018-06-05T23:59:07.097Z,99981.48
